Time;durP1;ratioP1;P1;durP2;ratioP2;P2;SDS_P1;SDS_P2;PMS_P1;PMS_P2;Temp;Humidity;BMP_temperature;BMP_pressure;BME280_temperature;BME280_humidity;BME280_pressure;Samples;Min_cycle;Max_cycle;Signal;HPM_P1;HPM_P2
2023/10/01 00:00:22;;;;;;;15.10;9.73;;;;;;;;;;5002314;28;20479;-59
2023/10/01 00:02:51;;;;;;;20.43;11.03;;;;;;;;;;5012010;28;20463;-58
2023/10/01 00:05:21;;;;;;;15.60;9.43;;;;;;;;;;5010647;28;20482;-59
2023/10/01 00:07:51;;;;;;;17.47;10.70;;;;;;;;;;5010222;28;20448;-58
2023/10/01 00:10:20;;;;;;;14.20;10.00;;;;;;;;;;5009621;28;20962;-57
2023/10/01 00:12:48;;;;;;;14.20;9.43;;;;;;;;;;5009564;28;20505;-58
2023/10/01 00:15:18;;;;;;;14.73;9.33;;;;;;;;;;5009919;28;20536;-60
2023/10/01 00:17:46;;;;;;;16.87;10.50;;;;;;;;;;5006855;28;20482;-58
2023/10/01 00:20:17;;;;;;;15.70;9.77;;;;;;;;;;5009465;28;20479;-57
2023/10/01 00:22:45;;;;;;;15.33;8.90;;;;;;;;;;5004015;28;20446;-59
2023/10/01 00:25:12;;;;;;;12.57;8.90;;;;;;;;;;5010034;28;20435;-58
2023/10/01 00:27:41;;;;;;;16.90;9.20;;;;;;;;;;5009730;28;20947;-59
2023/10/01 00:30:10;;;;;;;13.60;9.00;;;;;;;;;;5009627;28;20578;-57
2023/10/01 00:32:37;;;;;;;17.10;9.63;;;;;;;;;;5009026;28;20538;-60
2023/10/01 00:35:05;;;;;;;14.97;9.07;;;;;;;;;;5009374;28;20529;-58
2023/10/01 00:37:33;;;;;;;16.90;11.33;;;;;;;;;;5009335;28;20571;-57
2023/10/01 00:40:00;;;;;;;14.90;10.43;;;;;;;;;;5009376;28;20455;-57
2023/10/01 00:42:28;;;;;;;17.03;10.47;;;;;;;;;;5009562;28;20493;-59
2023/10/01 00:44:58;;;;;;;17.40;10.07;;;;;;;;;;5010079;28;20935;-59
2023/10/01 00:47:26;;;;;;;15.57;10.27;;;;;;;;;;5009317;28;20562;-58
2023/10/01 00:49:54;;;;;;;19.10;10.20;;;;;;;;;;5008743;28;20939;-58
2023/10/01 00:52:23;;;;;;;14.27;9.07;;;;;;;;;;5011222;28;20465;-56
2023/10/01 00:54:51;;;;;;;15.30;9.50;;;;;;;;;;5013434;28;20467;-58
2023/10/01 00:57:19;;;;;;;16.60;9.20;;;;;;;;;;5012910;28;20570;-58
2023/10/01 00:59:46;;;;;;;13.57;10.00;;;;;;;;;;5013142;28;20927;-58
2023/10/01 01:02:15;;;;;;;15.93;9.43;;;;;;;;;;5012801;28;20931;-57
2023/10/01 01:04:45;;;;;;;15.40;9.63;;;;;;;;;;5006280;28;20529;-59
2023/10/01 01:07:20;;;;;;;15.87;10.10;;;;;;;;;;5012748;28;20526;-58
2023/10/01 01:09:47;;;;;;;17.23;9.87;;;;;;;;;;5012564;28;20494;-60
2023/10/01 01:12:15;;;;;;;16.47;9.23;;;;;;;;;;5012388;28;20451;-58
2023/10/01 01:14:44;;;;;;;15.07;9.60;;;;;;;;;;5012890;28;20475;-56
2023/10/01 01:17:11;;;;;;;15.87;9.03;;;;;;;;;;5012245;28;21070;-58
2023/10/01 01:19:42;;;;;;;16.17;10.00;;;;;;;;;;5012618;28;20932;-59
2023/10/01 01:22:10;;;;;;;14.80;9.07;;;;;;;;;;5025319;28;20478;-60
2023/10/01 01:24:39;;;;;;;16.43;9.80;;;;;;;;;;5020449;28;20574;-57
2023/10/01 01:27:06;;;;;;;14.93;9.53;;;;;;;;;;5027490;28;20439;-58
2023/10/01 01:29:40;;;;;;;18.30;9.90;;;;;;;;;;5027215;28;20831;-59
2023/10/01 01:32:13;;;;;;;16.23;9.27;;;;;;;;;;5012450;28;20462;-58
2023/10/01 01:34:40;;;;;;;17.20;9.90;;;;;;;;;;5012906;28;20471;-58
2023/10/01 01:37:09;;;;;;;17.23;9.73;;;;;;;;;;5012240;28;20912;-58
2023/10/01 01:39:46;;;;;;;15.20;9.20;;;;;;;;;;5012411;28;20457;-59
2023/10/01 01:42:13;;;;;;;15.70;9.33;;;;;;;;;;5011587;28;20446;-57
2023/10/01 01:44:42;;;;;;;15.10;8.90;;;;;;;;;;5011606;28;20467;-59
2023/10/01 01:47:10;;;;;;;14.47;8.63;;;;;;;;;;5014243;28;20451;-56
2023/10/01 01:49:42;;;;;;;15.60;9.00;;;;;;;;;;5013129;28;20876;-58
2023/10/01 01:52:09;;;;;;;12.77;7.67;;;;;;;;;;5012945;28;20451;-57
2023/10/01 01:54:39;;;;;;;11.37;8.40;;;;;;;;;;5011612;28;20998;-57
2023/10/01 01:57:14;;;;;;;13.90;8.00;;;;;;;;;;5012453;28;20537;-56
2023/10/01 01:59:43;;;;;;;15.90;7.70;;;;;;;;;;5011580;28;20446;-59
2023/10/01 02:02:11;;;;;;;14.00;9.33;;;;;;;;;;5010593;28;20447;-60
2023/10/01 02:04:58;;;;;;;13.40;8.70;;;;;;;;;;5012070;28;20475;-57
2023/10/01 02:07:27;;;;;;;12.63;7.60;;;;;;;;;;5011571;28;20475;-58
2023/10/01 02:09:55;;;;;;;14.80;8.80;;;;;;;;;;5011202;28;20834;-57
2023/10/01 02:12:30;;;;;;;15.60;9.67;;;;;;;;;;5011641;28;20882;-57
2023/10/01 02:14:57;;;;;;;16.67;9.50;;;;;;;;;;5011671;28;20954;-57
2023/10/01 02:17:29;;;;;;;17.50;9.57;;;;;;;;;;5011047;28;20479;-59
2023/10/01 02:19:58;;;;;;;14.90;9.20;;;;;;;;;;5011582;28;20455;-57
2023/10/01 02:22:27;;;;;;;14.97;9.30;;;;;;;;;;5026820;28;20451;-56
2023/10/01 02:24:55;;;;;;;14.97;8.80;;;;;;;;;;5015141;28;20451;-58
2023/10/01 02:27:26;;;;;;;17.70;8.33;;;;;;;;;;5020676;28;20919;-58
2023/10/01 02:32:49;;;;;;;17.63;10.10;;;;;;;;;;5011735;28;20787;-54
2023/10/01 02:38:00;;;;;;;17.90;9.37;;;;;;;;;;5007219;28;20445;-58
2023/10/01 02:40:34;;;;;;;10.37;7.83;;;;;;;;;;5010385;28;20457;-55
2023/10/01 02:43:06;;;;;;;15.10;8.63;;;;;;;;;;5007940;28;20462;-55
2023/10/01 02:45:35;;;;;;;12.93;8.13;;;;;;;;;;5012857;28;20451;-57
2023/10/01 02:48:16;;;;;;;16.13;8.97;;;;;;;;;;5012482;28;20796;-57
2023/10/01 02:50:45;;;;;;;16.73;8.13;;;;;;;;;;5012425;28;20513;-56
2023/10/01 02:53:13;;;;;;;14.70;8.37;;;;;;;;;;5013460;28;20499;-55
2023/10/01 02:55:44;;;;;;;16.37;8.27;;;;;;;;;;5010686;28;20459;-55
2023/10/01 02:58:20;;;;;;;11.67;8.43;;;;;;;;;;5011133;28;20451;-55
2023/10/01 03:00:47;;;;;;;13.30;7.87;;;;;;;;;;5010846;28;20455;-56
2023/10/01 03:03:17;;;;;;;12.33;6.80;;;;;;;;;;5010647;28;20595;-55
2023/10/01 03:05:46;;;;;;;13.23;7.90;;;;;;;;;;5010583;28;20474;-56
2023/10/01 03:08:40;;;;;;;12.23;7.80;;;;;;;;;;5011948;28;20447;-54
2023/10/01 03:11:05;;;;;;;11.90;7.37;;;;;;;;;;5021442;28;20536;-58
2023/10/01 03:13:34;;;;;;;12.97;8.23;;;;;;;;;;5021074;28;20477;-58
2023/10/01 03:18:55;;;;;;;13.37;8.00;;;;;;;;;;5007962;28;20789;-56
2023/10/01 03:22:13;;;;;;;14.53;8.33;;;;;;;;;;5010341;28;20530;-55
2023/10/01 03:24:25;;;;;;;12.67;7.80;;;;;;;;;;5009869;28;20470;-55
2023/10/01 03:26:57;;;;;;;12.90;7.53;;;;;;;;;;5005421;28;21013;-55
2023/10/01 03:29:34;;;;;;;20.13;9.10;;;;;;;;;;5010254;28;20463;-56
2023/10/01 03:32:27;;;;;;;14.27;8.33;;;;;;;;;;5010803;28;20505;-56
2023/10/01 03:34:52;;;;;;;14.67;8.83;;;;;;;;;;5010037;28;20471;-56
2023/10/01 03:37:22;;;;;;;16.57;9.37;;;;;;;;;;5009259;28;20482;-56
2023/10/01 03:39:51;;;;;;;15.20;8.77;;;;;;;;;;5014449;28;20451;-53
2023/10/01 03:42:19;;;;;;;10.70;6.90;;;;;;;;;;5026240;28;20482;-56
2023/10/01 03:45:18;;;;;;;15.87;8.53;;;;;;;;;;5024134;28;20850;-54
2023/10/01 03:47:50;;;;;;;14.83;7.77;;;;;;;;;;5004789;28;20450;-55
2023/10/01 03:50:20;;;;;;;12.23;8.43;;;;;;;;;;5010249;28;20450;-56
2023/10/01 03:52:52;;;;;;;12.13;7.83;;;;;;;;;;5010229;28;20871;-55
2023/10/01 03:55:27;;;;;;;12.47;7.17;;;;;;;;;;5010260;28;20501;-54
2023/10/01 03:58:06;;;;;;;16.27;8.07;;;;;;;;;;5010687;28;20812;-55
2023/10/01 04:00:41;;;;;;;14.33;8.20;;;;;;;;;;5010625;28;20476;-56
2023/10/01 04:03:13;;;;;;;14.10;8.30;;;;;;;;;;5010034;28;20474;-55
2023/10/01 04:05:44;;;;;;;15.33;8.33;;;;;;;;;;5010212;28;20847;-58
2023/10/01 04:08:12;;;;;;;13.27;9.40;;;;;;;;;;5010290;28;20447;-53
2023/10/01 04:10:41;;;;;;;16.60;9.00;;;;;;;;;;5010114;28;20498;-56
2023/10/01 04:13:20;;;;;;;14.77;8.23;;;;;;;;;;5010288;28;20467;-55
2023/10/01 04:15:56;;;;;;;13.67;8.83;;;;;;;;;;5010330;28;20931;-55
2023/10/01 04:18:24;;;;;;;12.40;8.67;;;;;;;;;;5009951;28;20482;-56
2023/10/01 04:23:33;;;;;;;15.90;7.80;;;;;;;;;;5010410;28;20542;-55
2023/10/01 04:26:04;;;;;;;13.03;8.87;;;;;;;;;;5011478;28;20497;-54
2023/10/01 04:28:34;;;;;;;16.97;8.67;;;;;;;;;;5031067;28;20458;-56
2023/10/01 04:31:09;;;;;;;12.53;7.73;;;;;;;;;;5031640;28;20457;-56
2023/10/01 04:33:36;;;;;;;13.33;7.23;;;;;;;;;;5017366;28;20498;-55
2023/10/01 04:36:10;;;;;;;15.13;7.97;;;;;;;;;;5031845;28;20446;-56
2023/10/01 04:38:38;;;;;;;12.20;8.00;;;;;;;;;;5006685;28;20439;-56
2023/10/01 04:41:07;;;;;;;12.30;6.43;;;;;;;;;;5013348;28;20524;-54
2023/10/01 04:43:35;;;;;;;10.23;7.50;;;;;;;;;;5029207;23;20494;-55
2023/10/01 04:46:08;;;;;;;12.63;6.93;;;;;;;;;;5012152;28;20485;-56
2023/10/01 04:48:37;;;;;;;12.20;7.93;;;;;;;;;;5005203;28;20834;-55
2023/10/01 04:51:07;;;;;;;14.67;8.40;;;;;;;;;;5013132;28;20468;-55
2023/10/01 04:53:35;;;;;;;11.50;7.90;;;;;;;;;;5013414;28;20466;-55
2023/10/01 04:56:05;;;;;;;13.17;7.70;;;;;;;;;;5013079;28;20493;-55
2023/10/01 04:58:36;;;;;;;11.20;7.43;;;;;;;;;;5012921;28;21026;-56
2023/10/01 05:01:06;;;;;;;12.17;7.20;;;;;;;;;;5011390;28;20543;-55
2023/10/01 05:03:39;;;;;;;15.07;7.60;;;;;;;;;;5002213;28;21051;-55
2023/10/01 05:06:11;;;;;;;12.40;7.23;;;;;;;;;;4995397;28;20530;-55
2023/10/01 05:08:42;;;;;;;13.80;8.40;;;;;;;;;;4998727;28;20481;-55
2023/10/01 05:11:11;;;;;;;13.43;7.20;;;;;;;;;;4998021;28;21125;-55
2023/10/01 05:13:40;;;;;;;13.13;7.37;;;;;;;;;;5011456;28;20525;-55
2023/10/01 05:16:12;;;;;;;12.70;7.50;;;;;;;;;;5010861;28;20991;-55
2023/10/01 05:18:39;;;;;;;11.80;8.07;;;;;;;;;;5010952;28;20479;-55
2023/10/01 05:21:12;;;;;;;9.57;6.90;;;;;;;;;;5010862;28;20858;-55
2023/10/01 05:23:40;;;;;;;12.80;7.80;;;;;;;;;;5011591;28;20463;-55
2023/10/01 05:26:08;;;;;;;13.27;8.50;;;;;;;;;;5011043;28;20493;-55
2023/10/01 05:28:36;;;;;;;11.47;7.47;;;;;;;;;;4993750;28;20782;-55
2023/10/01 05:31:12;;;;;;;12.30;7.80;;;;;;;;;;4994399;28;20450;-56
2023/10/01 05:33:46;;;;;;;13.07;7.97;;;;;;;;;;4994583;28;20570;-55
2023/10/01 05:36:13;;;;;;;11.80;7.53;;;;;;;;;;5003060;28;20450;-55
2023/10/01 05:38:44;;;;;;;13.87;8.40;;;;;;;;;;5011885;28;20579;-56
2023/10/01 05:41:13;;;;;;;11.93;6.73;;;;;;;;;;5011973;28;20470;-56
2023/10/01 05:43:43;;;;;;;15.03;8.70;;;;;;;;;;5012094;28;20826;-55
2023/10/01 05:46:10;;;;;;;15.53;8.80;;;;;;;;;;5010009;28;20447;-55
2023/10/01 05:48:39;;;;;;;12.43;7.57;;;;;;;;;;5003853;28;20501;-55
2023/10/01 05:51:11;;;;;;;12.43;8.10;;;;;;;;;;5010091;28;20821;-55
2023/10/01 05:53:38;;;;;;;15.73;8.80;;;;;;;;;;5003627;28;20502;-55
2023/10/01 05:56:07;;;;;;;15.60;8.90;;;;;;;;;;5010724;28;20447;-55
2023/10/01 05:58:34;;;;;;;12.63;7.37;;;;;;;;;;5010658;28;20937;-55
2023/10/01 06:01:13;;;;;;;9.90;6.90;;;;;;;;;;5010336;28;20479;-55
2023/10/01 06:03:41;;;;;;;15.97;8.10;;;;;;;;;;5010484;28;20482;-55
2023/10/01 06:06:10;;;;;;;14.00;7.47;;;;;;;;;;5009572;28;20962;-55
2023/10/01 06:08:46;;;;;;;13.30;8.53;;;;;;;;;;5008855;28;20439;-56
2023/10/01 06:11:15;;;;;;;20.20;8.50;;;;;;;;;;5009429;28;20446;-55
2023/10/01 06:13:48;;;;;;;14.53;9.40;;;;;;;;;;5010045;28;20459;-55
2023/10/01 06:16:16;;;;;;;14.60;8.20;;;;;;;;;;5010204;28;21197;-55
2023/10/01 06:18:49;;;;;;;15.90;9.03;;;;;;;;;;5010028;28;20490;-55
2023/10/01 06:21:19;;;;;;;14.73;9.03;;;;;;;;;;5001266;28;20447;-56
2023/10/01 06:23:52;;;;;;;10.40;7.80;;;;;;;;;;4993620;28;20471;-55
2023/10/01 06:26:29;;;;;;;13.43;8.10;;;;;;;;;;4994833;28;20516;-55
2023/10/01 06:28:57;;;;;;;11.20;6.73;;;;;;;;;;4999779;28;20493;-55
2023/10/01 06:31:27;;;;;;;11.57;7.73;;;;;;;;;;5011040;28;20486;-55
2023/10/01 06:33:55;;;;;;;16.73;10.67;;;;;;;;;;5011263;28;20994;-55
2023/10/01 06:36:25;;;;;;;17.40;9.80;;;;;;;;;;5011474;28;20497;-55
2023/10/01 06:38:54;;;;;;;12.63;8.50;;;;;;;;;;5011400;28;20486;-55
2023/10/01 06:41:25;;;;;;;14.97;9.97;;;;;;;;;;5009860;28;21010;-55
2023/10/01 06:43:55;;;;;;;13.83;9.90;;;;;;;;;;5009787;28;21025;-55
2023/10/01 06:46:23;;;;;;;16.47;9.27;;;;;;;;;;5007228;28;20479;-56
2023/10/01 06:48:51;;;;;;;15.97;9.53;;;;;;;;;;5007411;28;20443;-55
2023/10/01 06:51:21;;;;;;;17.43;8.90;;;;;;;;;;5007037;28;20447;-55
2023/10/01 06:53:58;;;;;;;12.10;8.13;;;;;;;;;;5008923;28;20473;-55
2023/10/01 06:56:26;;;;;;;17.17;9.27;;;;;;;;;;5010504;28;20458;-55
2023/10/01 07:01:46;;;;;;;14.50;7.40;;;;;;;;;;5002744;28;20931;-55
2023/10/01 07:04:14;;;;;;;16.00;8.37;;;;;;;;;;4995941;28;20477;-56
2023/10/01 07:06:44;;;;;;;14.23;8.03;;;;;;;;;;4993289;28;20810;-56
2023/10/01 07:09:27;;;;;;;12.27;8.07;;;;;;;;;;4994240;28;20822;-56
2023/10/01 07:11:56;;;;;;;13.73;7.83;;;;;;;;;;4993142;28;20444;-56
2023/10/01 07:14:31;;;;;;;13.20;7.07;;;;;;;;;;5009934;28;20462;-55
2023/10/01 07:17:00;;;;;;;12.50;8.20;;;;;;;;;;5010820;28;20497;-55
2023/10/01 07:19:27;;;;;;;12.60;7.50;;;;;;;;;;5010462;28;20566;-56
2023/10/01 07:21:58;;;;;;;12.00;7.73;;;;;;;;;;4997000;28;20656;-56
2023/10/01 07:24:29;;;;;;;14.87;9.20;;;;;;;;;;4993568;28;20481;-55
2023/10/01 07:27:03;;;;;;;14.70;9.23;;;;;;;;;;4993108;28;20447;-56
2023/10/01 07:29:33;;;;;;;16.20;8.10;;;;;;;;;;4995015;28;20820;-56
2023/10/01 07:32:01;;;;;;;15.93;7.97;;;;;;;;;;5010360;28;20447;-55
2023/10/01 07:34:31;;;;;;;16.37;8.60;;;;;;;;;;5010365;28;20467;-56
2023/10/01 07:36:59;;;;;;;12.83;7.33;;;;;;;;;;5010724;28;20538;-56
2023/10/01 07:39:32;;;;;;;17.53;8.73;;;;;;;;;;5010272;28;20578;-55
2023/10/01 07:42:02;;;;;;;15.37;10.27;;;;;;;;;;5010001;28;20447;-55
2023/10/01 07:44:29;;;;;;;14.90;9.67;;;;;;;;;;5009128;28;20518;-55
2023/10/01 07:46:56;;;;;;;14.23;9.20;;;;;;;;;;5008944;28;20525;-55
2023/10/01 07:49:25;;;;;;;17.80;9.50;;;;;;;;;;5008222;28;20535;-55
2023/10/01 07:51:54;;;;;;;13.90;9.90;;;;;;;;;;5008672;28;20482;-55
2023/10/01 07:54:23;;;;;;;14.70;9.43;;;;;;;;;;5008556;28;20475;-56
2023/10/01 07:56:56;;;;;;;13.10;8.60;;;;;;;;;;5010392;28;20458;-56
2023/10/01 07:59:33;;;;;;;12.33;8.60;;;;;;;;;;5010049;28;20963;-55
2023/10/01 08:02:13;;;;;;;13.33;8.93;;;;;;;;;;5013464;28;20951;-55
2023/10/01 08:07:22;;;;;;;17.90;10.93;;;;;;;;;;4995714;28;20542;-56
2023/10/01 08:09:52;;;;;;;17.07;10.07;;;;;;;;;;4996135;28;20451;-55
2023/10/01 08:12:28;;;;;;;15.23;10.33;;;;;;;;;;5004912;28;20534;-55
2023/10/01 08:17:37;;;;;;;17.23;10.30;;;;;;;;;;5011515;28;20932;-55
2023/10/01 08:20:17;;;;;;;16.60;10.43;;;;;;;;;;5012534;28;20928;-55
2023/10/01 08:23:09;;;;;;;17.00;9.00;;;;;;;;;;5009997;28;20517;-55
2023/10/01 08:25:32;;;;;;;13.97;9.20;;;;;;;;;;5008161;28;20522;-55
2023/10/01 08:28:26;;;;;;;14.70;8.67;;;;;;;;;;5010430;28;20514;-55
2023/10/01 08:31:02;;;;;;;14.90;9.30;;;;;;;;;;5009300;28;20814;-55
2023/10/01 08:33:42;;;;;;;17.10;9.03;;;;;;;;;;5012920;28;20528;-55
2023/10/01 08:36:16;;;;;;;15.43;9.00;;;;;;;;;;5010908;28;20449;-56
2023/10/01 08:38:47;;;;;;;12.33;8.40;;;;;;;;;;5009816;28;20467;-56
2023/10/01 08:41:32;;;;;;;15.53;10.13;;;;;;;;;;5009293;28;20450;-55
2023/10/01 08:44:10;;;;;;;13.50;8.40;;;;;;;;;;5008872;28;20493;-56
2023/10/01 08:46:40;;;;;;;13.00;8.87;;;;;;;;;;5012150;28;20470;-57
2023/10/01 08:49:22;;;;;;;18.13;10.60;;;;;;;;;;5011350;28;20534;-56
2023/10/01 08:51:52;;;;;;;13.23;8.17;;;;;;;;;;5006285;28;20446;-56
2023/10/01 08:54:23;;;;;;;16.27;9.10;;;;;;;;;;5012734;28;20557;-56
2023/10/01 08:56:52;;;;;;;13.33;8.57;;;;;;;;;;5013333;28;20447;-55
2023/10/01 08:59:27;;;;;;;12.77;8.20;;;;;;;;;;5013169;28;20882;-56
2023/10/01 09:01:55;;;;;;;14.03;8.70;;;;;;;;;;5013565;28;20474;-56
2023/10/01 09:04:45;;;;;;;14.10;10.20;;;;;;;;;;5013449;28;20481;-56
2023/10/01 09:07:18;;;;;;;13.13;8.33;;;;;;;;;;5010645;28;20885;-56
2023/10/01 09:09:52;;;;;;;17.80;9.23;;;;;;;;;;5010025;28;20471;-56
2023/10/01 09:12:20;;;;;;;14.13;8.10;;;;;;;;;;5007891;28;20537;-56
2023/10/01 09:14:49;;;;;;;14.83;7.57;;;;;;;;;;5010046;28;21074;-56
2023/10/01 09:17:24;;;;;;;15.80;7.90;;;;;;;;;;5011361;28;20505;-55
2023/10/01 09:19:52;;;;;;;12.77;8.60;;;;;;;;;;5011063;28;20478;-55
2023/10/01 09:22:35;;;;;;;14.33;8.43;;;;;;;;;;5010923;28;20450;-56
2023/10/01 09:25:15;;;;;;;15.40;9.30;;;;;;;;;;5012003;28;20547;-55
2023/10/01 09:27:57;;;;;;;13.37;8.37;;;;;;;;;;5012534;28;20951;-56
2023/10/01 09:30:27;;;;;;;14.47;9.03;;;;;;;;;;5006552;28;21001;-56
2023/10/01 09:32:54;;;;;;;15.90;9.67;;;;;;;;;;5008929;28;20542;-55
2023/10/01 09:35:38;;;;;;;14.40;8.23;;;;;;;;;;5009371;28;20470;-56
2023/10/01 09:38:10;;;;;;;15.07;8.70;;;;;;;;;;5009216;28;20486;-56
2023/10/01 09:40:38;;;;;;;15.43;10.13;;;;;;;;;;5001588;28;20458;-56
2023/10/01 09:43:17;;;;;;;14.43;8.83;;;;;;;;;;5008966;28;21121;-55
2023/10/01 09:45:47;;;;;;;14.20;8.77;;;;;;;;;;5002896;28;20445;-56
2023/10/01 09:48:29;;;;;;;14.57;9.00;;;;;;;;;;5011338;28;20518;-56
2023/10/01 09:50:59;;;;;;;13.03;8.90;;;;;;;;;;5009778;28;20955;-55
2023/10/01 09:53:26;;;;;;;13.33;8.40;;;;;;;;;;5008628;28;20467;-56
2023/10/01 09:55:57;;;;;;;12.83;8.53;;;;;;;;;;5011199;28;20902;-56
2023/10/01 09:58:25;;;;;;;14.67;9.30;;;;;;;;;;5011332;28;21006;-56
2023/10/01 10:00:55;;;;;;;15.10;9.70;;;;;;;;;;5011461;28;20532;-56
2023/10/01 10:03:22;;;;;;;15.03;8.93;;;;;;;;;;5011278;28;20462;-56
2023/10/01 10:05:51;;;;;;;15.70;9.03;;;;;;;;;;5011395;28;20811;-56
2023/10/01 10:08:26;;;;;;;15.67;9.13;;;;;;;;;;5006823;28;20473;-55
2023/10/01 10:10:55;;;;;;;14.70;9.13;;;;;;;;;;5001884;28;20457;-55
2023/10/01 10:13:45;;;;;;;12.47;8.57;;;;;;;;;;5000457;28;20451;-56
2023/10/01 10:16:32;;;;;;;16.17;9.87;;;;;;;;;;4998819;28;20448;-55
2023/10/01 10:19:09;;;;;;;14.90;9.33;;;;;;;;;;4992426;28;20534;-56
2023/10/01 10:22:05;;;;;;;16.00;9.53;;;;;;;;;;5001190;28;20509;-55
2023/10/01 10:24:34;;;;;;;13.20;8.50;;;;;;;;;;5008097;28;21018;-56
2023/10/01 10:27:06;;;;;;;12.27;7.93;;;;;;;;;;5008165;28;20547;-56
2023/10/01 10:29:56;;;;;;;16.43;10.03;;;;;;;;;;5008012;28;20877;-56
2023/10/01 10:32:26;;;;;;;14.40;10.00;;;;;;;;;;5008511;28;20584;-55
2023/10/01 10:35:14;;;;;;;12.60;8.40;;;;;;;;;;5007276;28;20508;-56
2023/10/01 10:37:47;;;;;;;14.47;9.20;;;;;;;;;;4999571;28;20857;-56
2023/10/01 10:40:23;;;;;;;16.50;9.13;;;;;;;;;;5005673;28;20541;-55
2023/10/01 10:43:16;;;;;;;11.90;8.30;;;;;;;;;;5005451;28;20948;-57
2023/10/01 10:45:57;;;;;;;16.40;10.03;;;;;;;;;;5020399;23;20669;-57
2023/10/01 10:48:45;;;;;;;13.57;7.60;;;;;;;;;;5005142;28;20795;-54
2023/10/01 10:51:18;;;;;;;14.50;8.00;;;;;;;;;;5011084;28;20536;-59
2023/10/01 10:53:46;;;;;;;12.73;8.77;;;;;;;;;;5012940;28;20444;-57
2023/10/01 10:56:14;;;;;;;13.27;7.80;;;;;;;;;;5015235;28;20447;-56
2023/10/01 10:58:47;;;;;;;16.17;9.20;;;;;;;;;;5026161;28;21020;-59
2023/10/01 11:01:19;;;;;;;14.97;9.13;;;;;;;;;;5021781;28;21010;-57
2023/10/01 11:03:49;;;;;;;15.43;9.40;;;;;;;;;;5027476;28;20525;-58
2023/10/01 11:06:20;;;;;;;14.83;9.43;;;;;;;;;;5027187;28;20474;-57
2023/10/01 11:08:51;;;;;;;14.93;8.77;;;;;;;;;;5021750;28;20438;-58
2023/10/01 11:11:25;;;;;;;14.70;9.37;;;;;;;;;;5026999;28;20442;-57
2023/10/01 11:14:00;;;;;;;13.50;9.50;;;;;;;;;;5027231;28;21286;-58
2023/10/01 11:16:33;;;;;;;13.37;8.70;;;;;;;;;;5027084;28;20946;-56
2023/10/01 11:19:12;;;;;;;13.60;8.50;;;;;;;;;;5027093;28;20482;-58
2023/10/01 11:21:54;;;;;;;12.23;9.00;;;;;;;;;;5015369;28;20978;-58
2023/10/01 11:24:22;;;;;;;15.57;8.97;;;;;;;;;;5013764;28;20948;-56
2023/10/01 11:27:11;;;;;;;13.57;8.80;;;;;;;;;;5013255;28;20446;-59
2023/10/01 11:29:39;;;;;;;13.50;9.10;;;;;;;;;;5005442;28;20537;-59
2023/10/01 11:32:07;;;;;;;12.90;8.37;;;;;;;;;;5027226;28;20448;-57
2023/10/01 11:34:45;;;;;;;12.10;8.07;;;;;;;;;;5026725;28;20841;-59
2023/10/01 11:37:16;;;;;;;12.97;7.53;;;;;;;;;;5026667;28;20497;-58
2023/10/01 11:39:49;;;;;;;11.37;8.13;;;;;;;;;;5021197;28;20485;-59
2023/10/01 11:42:26;;;;;;;15.37;8.83;;;;;;;;;;5026724;28;20446;-57
2023/10/01 11:44:53;;;;;;;17.43;9.90;;;;;;;;;;5026446;28;20553;-59
2023/10/01 11:47:33;;;;;;;12.93;8.63;;;;;;;;;;5026854;28;20470;-58
2023/10/01 11:50:08;;;;;;;14.97;9.00;;;;;;;;;;5019757;28;20442;-58
2023/10/01 11:52:36;;;;;;;14.50;9.43;;;;;;;;;;5026406;28;20533;-59
2023/10/01 11:55:19;;;;;;;15.43;8.63;;;;;;;;;;5026870;28;20453;-58
2023/10/01 11:57:52;;;;;;;12.83;8.30;;;;;;;;;;5018807;28;21076;-58
2023/10/01 12:00:52;;;;;;;13.53;8.90;;;;;;;;;;5026286;28;20559;-58
2023/10/01 12:03:10;;;;;;;16.90;9.50;;;;;;;;;;5026599;28;20466;-58
2023/10/01 12:05:42;;;;;;;14.57;9.17;;;;;;;;;;5013636;28;20544;-58
2023/10/01 12:08:14;;;;;;;13.27;8.70;;;;;;;;;;5014170;28;20443;-57
2023/10/01 12:10:42;;;;;;;15.07;8.83;;;;;;;;;;5026555;28;20565;-57
2023/10/01 12:13:10;;;;;;;14.30;8.40;;;;;;;;;;5018264;28;20521;-58
2023/10/01 12:15:43;;;;;;;12.77;8.40;;;;;;;;;;5008269;28;20465;-58
2023/10/01 12:18:14;;;;;;;11.87;8.47;;;;;;;;;;5008201;28;20447;-58
2023/10/01 12:20:47;;;;;;;14.93;8.17;;;;;;;;;;5009040;28;20483;-58
2023/10/01 12:23:16;;;;;;;12.80;9.37;;;;;;;;;;5009200;28;20487;-58
2023/10/01 12:25:46;;;;;;;11.50;8.40;;;;;;;;;;5007862;28;20467;-57
2023/10/01 12:28:18;;;;;;;12.70;8.60;;;;;;;;;;5009181;28;20454;-59
2023/10/01 12:30:47;;;;;;;15.27;9.57;;;;;;;;;;5005592;28;20436;-58
2023/10/01 12:33:15;;;;;;;13.93;8.03;;;;;;;;;;5009744;28;20443;-58
2023/10/01 12:35:46;;;;;;;15.17;9.00;;;;;;;;;;5008056;28;21112;-58
2023/10/01 12:38:25;;;;;;;14.30;8.50;;;;;;;;;;5009422;28;20469;-59
2023/10/01 12:40:52;;;;;;;14.43;9.70;;;;;;;;;;5008152;28;20483;-57
2023/10/01 12:43:39;;;;;;;13.07;8.43;;;;;;;;;;5012003;28;20454;-57
2023/10/01 12:46:14;;;;;;;14.20;9.07;;;;;;;;;;5005157;28;20451;-58
2023/10/01 12:51:33;;;;;;;16.40;9.70;;;;;;;;;;5010602;28;20435;-58
2023/10/01 12:54:06;;;;;;;16.93;9.17;;;;;;;;;;5012905;28;20815;-58
2023/10/01 12:56:46;;;;;;;15.50;10.00;;;;;;;;;;5011601;28;20451;-57
2023/10/01 12:59:18;;;;;;;14.03;10.00;;;;;;;;;;5012856;28;20482;-56
2023/10/01 13:01:50;;;;;;;18.27;10.10;;;;;;;;;;5012885;28;20486;-57
2023/10/01 13:04:22;;;;;;;18.27;10.60;;;;;;;;;;5013258;28;21022;-57
2023/10/01 13:06:51;;;;;;;14.97;9.83;;;;;;;;;;5013193;28;20443;-57
2023/10/01 13:12:13;;;;;;;18.10;9.53;;;;;;;;;;5012935;28;20532;-56
2023/10/01 13:14:41;;;;;;;16.03;9.60;;;;;;;;;;5006815;28;20498;-58
2023/10/01 13:17:19;;;;;;;12.40;9.23;;;;;;;;;;5012794;28;20920;-57
2023/10/01 13:19:48;;;;;;;16.57;9.73;;;;;;;;;;5012883;28;20565;-58
2023/10/01 13:22:18;;;;;;;13.30;9.30;;;;;;;;;;5013133;28;20509;-58
2023/10/01 13:24:53;;;;;;;13.13;9.60;;;;;;;;;;5013071;28;20494;-55
2023/10/01 13:27:21;;;;;;;13.90;8.83;;;;;;;;;;5012923;28;20446;-58
2023/10/01 13:29:49;;;;;;;16.70;10.20;;;;;;;;;;5012164;28;20996;-57
2023/10/01 13:32:16;;;;;;;15.17;9.60;;;;;;;;;;5012488;28;20461;-58
2023/10/01 13:34:54;;;;;;;15.30;9.17;;;;;;;;;;5012550;28;20462;-57
2023/10/01 13:40:19;;;;;;;17.07;9.60;;;;;;;;;;4996351;28;20510;-57
2023/10/01 14:10:21;;;;;;;20.53;11.20;;;;;;;;;;5004672;28;20442;-58
2023/10/01 14:13:00;;;;;;;17.10;11.97;;;;;;;;;;5012283;28;20474;-57
2023/10/01 14:15:29;;;;;;;21.20;12.90;;;;;;;;;;5011891;28;20475;-58
2023/10/01 14:17:58;;;;;;;20.10;12.63;;;;;;;;;;5011987;28;20447;-57
2023/10/01 14:20:44;;;;;;;21.27;12.33;;;;;;;;;;5011314;28;20495;-57
2023/10/01 14:23:22;;;;;;;22.93;12.80;;;;;;;;;;5011246;28;20462;-57
2023/10/01 14:25:58;;;;;;;22.67;12.83;;;;;;;;;;5011944;28;20473;-59
2023/10/01 14:28:26;;;;;;;26.03;13.97;;;;;;;;;;5011315;28;20576;-57
2023/10/01 14:31:02;;;;;;;21.77;12.87;;;;;;;;;;5011252;28;20537;-58
2023/10/01 14:33:30;;;;;;;25.07;14.90;;;;;;;;;;5011839;28;20453;-59
2023/10/01 14:36:02;;;;;;;21.23;11.97;;;;;;;;;;5011825;28;20471;-60
2023/10/01 14:38:37;;;;;;;20.43;12.20;;;;;;;;;;5011527;28;20454;-57
2023/10/01 14:41:09;;;;;;;21.53;12.93;;;;;;;;;;5011441;28;20505;-59
2023/10/01 14:43:41;;;;;;;21.10;12.53;;;;;;;;;;5011692;28;20569;-57
2023/10/01 14:46:13;;;;;;;20.30;11.50;;;;;;;;;;5011304;28;20466;-58
2023/10/01 14:48:41;;;;;;;25.00;13.63;;;;;;;;;;5011786;28;20481;-59
2023/10/01 14:51:08;;;;;;;24.03;12.73;;;;;;;;;;5011105;28;21002;-59
2023/10/01 14:53:36;;;;;;;22.40;13.07;;;;;;;;;;5011157;28;20443;-59
2023/10/01 14:56:04;;;;;;;23.50;12.87;;;;;;;;;;5011119;28;20454;-60
2023/10/01 14:58:34;;;;;;;22.37;12.47;;;;;;;;;;5011534;28;20875;-59
2023/10/01 15:01:01;;;;;;;24.60;13.53;;;;;;;;;;5008270;28;20485;-57
2023/10/01 15:03:36;;;;;;;28.43;13.27;;;;;;;;;;5010783;28;20451;-59
2023/10/01 15:06:04;;;;;;;22.30;13.10;;;;;;;;;;5010218;28;20513;-57
2023/10/01 15:08:35;;;;;;;24.93;14.30;;;;;;;;;;5010338;28;20600;-57
2023/10/01 15:11:12;;;;;;;24.47;14.43;;;;;;;;;;5009908;28;20535;-59
2023/10/01 15:13:42;;;;;;;27.67;15.10;;;;;;;;;;5003461;28;20446;-60
2023/10/01 15:16:12;;;;;;;27.07;15.43;;;;;;;;;;5010705;28;20447;-58
2023/10/01 15:18:40;;;;;;;27.13;15.20;;;;;;;;;;5010786;28;20475;-57
2023/10/01 15:21:20;;;;;;;31.53;17.40;;;;;;;;;;5010231;28;20482;-58
2023/10/01 15:23:48;;;;;;;23.90;15.00;;;;;;;;;;5008892;28;20454;-57
2023/10/01 15:26:15;;;;;;;25.93;16.60;;;;;;;;;;5009493;28;20438;-57
2023/10/01 15:28:51;;;;;;;31.43;15.63;;;;;;;;;;5010927;28;20459;-59
2023/10/01 15:31:32;;;;;;;26.53;14.37;;;;;;;;;;5005737;28;20522;-56
2023/10/01 15:34:03;;;;;;;27.30;15.77;;;;;;;;;;5010370;28;20473;-59
2023/10/01 15:36:48;;;;;;;26.37;15.90;;;;;;;;;;5010463;28;20935;-57
2023/10/01 15:39:16;;;;;;;27.87;16.00;;;;;;;;;;5007473;28;20448;-56
2023/10/01 15:41:44;;;;;;;21.27;14.40;;;;;;;;;;5011360;28;20490;-58
2023/10/01 15:44:14;;;;;;;28.67;14.93;;;;;;;;;;5012008;28;20471;-58
2023/10/01 15:46:44;;;;;;;24.53;15.00;;;;;;;;;;5002375;28;20483;-59
2023/10/01 15:49:19;;;;;;;28.20;15.70;;;;;;;;;;5009208;28;20451;-57
2023/10/01 15:51:47;;;;;;;27.93;15.17;;;;;;;;;;5009324;28;20531;-59